Weather at Lotnisko Olsztyn-Dajtki

Public forecast

Using degrees Celsius for public forecast. Weather courtesy of forecast.io.

Closest aviation weather report (METAR) to Lotnisko Olsztyn-Dajtki

Closest report is Olsztyn-Mazury Airport, 25.5 nm (47.3 km) SE. Retrieved 2021/09/27 00:00 UTC (15 minutes ago):

EPSY 270000Z 04002KT 4000 BR MIFG NSC 06/06 Q1024

Closest aviation forecast (TAF) to Lotnisko Olsztyn-Dajtki

Closest forecast is Khrabrovo Airport, 67.4 nm (124.7 km) N. Retrieved 2021-09-27 00:21 UTC (0 seconds ago):

TAF UMKK 262255Z 2700/2724 11003G08MPS 9999 SCT030 BECMG 2709/2711 12006G11MPS